createdAt,value
2017-01-15T00:00:43.729Z,0
2017-01-15T00:01:53.719Z,0
2017-01-15T00:03:04.508Z,0
2017-01-15T00:04:14.874Z,0
2017-01-15T00:05:25.632Z,0
2017-01-15T00:06:35.997Z,0
2017-01-15T00:07:46.770Z,0
2017-01-15T00:08:57.116Z,0
2017-01-15T00:10:07.159Z,0
2017-01-15T00:11:17.895Z,0
2017-01-15T00:12:27.865Z,0
2017-01-15T00:13:38.629Z,0
2017-01-15T00:14:49.396Z,0
2017-01-15T00:16:00.152Z,0
2017-01-15T00:17:10.544Z,0
2017-01-15T00:18:21.312Z,0
2017-01-15T00:19:31.258Z,0
2017-01-15T00:20:41.613Z,0
2017-01-15T00:21:52.358Z,0
2017-01-15T00:23:03.115Z,0
2017-01-15T00:24:13.869Z,0
2017-01-15T00:25:24.222Z,0
2017-01-15T00:26:34.971Z,0
2017-01-15T00:27:45.326Z,0
2017-01-15T00:28:55.682Z,0
2017-01-15T00:30:06.436Z,0
2017-01-15T00:31:17.195Z,0
2017-01-15T00:32:27.540Z,0
2017-01-15T00:33:37.482Z,0
2017-01-15T00:34:48.230Z,0
2017-01-15T00:35:58.590Z,0
2017-01-15T00:37:09.362Z,0
2017-01-15T00:38:20.112Z,0
2017-01-15T00:39:30.853Z,0
2017-01-15T00:40:41.614Z,0
2017-01-15T00:41:52.364Z,0
2017-01-15T00:43:02.358Z,0
2017-01-15T00:44:12.717Z,0
2017-01-15T00:45:23.443Z,0
2017-01-15T00:46:33.395Z,0
2017-01-15T00:47:44.147Z,0
2017-01-15T00:48:54.513Z,0
2017-01-15T00:50:04.869Z,0
2017-01-15T00:51:15.650Z,0
2017-01-15T00:52:26.007Z,0
2017-01-15T00:53:36.363Z,0
2017-01-15T00:54:46.715Z,0
2017-01-15T00:55:57.449Z,0
2017-01-15T00:57:08.209Z,0
2017-01-15T00:58:18.575Z,0
2017-01-15T00:59:29.334Z,0
2017-01-15T01:00:39.702Z,0
2017-01-15T01:01:50.059Z,0
2017-01-15T01:03:00.806Z,0
2017-01-15T01:04:11.574Z,0
2017-01-15T01:05:21.916Z,0
2017-01-15T01:06:32.276Z,0
2017-01-15T01:07:42.698Z,0
2017-01-15T01:08:53.049Z,0
2017-01-15T01:10:03.447Z,0
2017-01-15T01:11:14.205Z,0
2017-01-15T01:12:24.547Z,0
2017-01-15T01:13:35.282Z,0
2017-01-15T01:14:45.238Z,0
2017-01-15T01:15:56.019Z,0
2017-01-15T01:17:06.757Z,0
2017-01-15T01:18:17.124Z,0
2017-01-15T01:19:27.467Z,0
2017-01-15T01:20:38.208Z,0
2017-01-15T01:21:48.939Z,0
2017-01-15T01:22:58.916Z,0
2017-01-15T01:24:08.858Z,0
2017-01-15T01:25:19.290Z,0
2017-01-15T01:26:29.631Z,0
2017-01-15T01:27:39.583Z,0
2017-01-15T01:28:49.913Z,0
2017-01-15T01:29:59.870Z,0
2017-01-15T01:31:10.217Z,0
2017-01-15T01:32:20.200Z,0
2017-01-15T01:33:30.954Z,0
2017-01-15T01:34:41.302Z,0
2017-01-15T01:35:51.655Z,0
2017-01-15T01:37:02.419Z,0
2017-01-15T01:38:12.397Z,0
2017-01-15T01:39:22.745Z,0
2017-01-15T01:40:33.078Z,0
2017-01-15T01:41:43.811Z,0
2017-01-15T01:42:53.760Z,0
2017-01-15T01:44:03.783Z,0
2017-01-15T01:45:14.134Z,0
2017-01-15T01:46:24.885Z,0
2017-01-15T01:47:35.234Z,0
2017-01-15T01:48:45.579Z,0
2017-01-15T01:49:56.325Z,0
2017-01-15T01:51:07.077Z,0
2017-01-15T01:52:17.805Z,0
2017-01-15T01:53:28.151Z,0
2017-01-15T01:54:38.515Z,0
2017-01-15T01:55:48.851Z,0
2017-01-15T01:56:59.618Z,0
2017-01-15T01:58:09.968Z,0
2017-01-15T01:59:20.337Z,0
2017-01-15T02:00:30.297Z,0
2017-01-15T02:01:41.034Z,0
2017-01-15T02:02:51.766Z,0
2017-01-15T02:04:01.728Z,0
2017-01-15T02:05:12.503Z,0
2017-01-15T02:06:22.856Z,0
2017-01-15T02:07:33.204Z,0
2017-01-15T02:08:43.559Z,0
2017-01-15T02:09:53.503Z,0
2017-01-15T02:11:03.854Z,0
2017-01-15T02:12:14.593Z,0
2017-01-15T02:13:24.933Z,0
2017-01-15T02:14:35.284Z,0
2017-01-15T02:15:46.032Z,0
2017-01-15T02:16:56.388Z,0
2017-01-15T02:18:06.775Z,0
2017-01-15T02:19:16.327Z,0
2017-01-15T02:20:26.669Z,0
2017-01-15T02:21:37.079Z,0
2017-01-15T02:22:47.818Z,0
2017-01-15T02:23:58.565Z,0
2017-01-15T02:25:08.134Z,0
2017-01-15T02:26:18.469Z,0
2017-01-15T02:27:28.817Z,0
2017-01-15T02:28:39.556Z,0
2017-01-15T02:29:50.303Z,0
2017-01-15T02:31:00.644Z,0
2017-01-15T02:32:11.026Z,0
2017-01-15T02:33:21.776Z,0
2017-01-15T02:34:31.714Z,0
2017-01-15T02:35:42.095Z,0
2017-01-15T02:36:52.824Z,0
2017-01-15T02:38:03.200Z,0
2017-01-15T02:39:13.947Z,0
2017-01-15T02:40:24.274Z,0
2017-01-15T02:41:34.265Z,0
2017-01-15T02:42:45.015Z,0
2017-01-15T02:43:55.739Z,0
2017-01-15T02:45:06.494Z,0
2017-01-15T02:46:16.858Z,0
2017-01-15T02:47:27.585Z,0
2017-01-15T02:48:37.946Z,0
2017-01-15T02:49:47.906Z,0
2017-01-15T02:50:58.260Z,0
2017-01-15T02:52:08.772Z,0
2017-01-15T02:53:19.808Z,0
2017-01-15T02:54:30.527Z,0
2017-01-15T02:55:41.272Z,0
2017-01-15T02:56:51.614Z,0
2017-01-15T02:58:01.951Z,0
2017-01-15T02:59:12.298Z,0
2017-01-15T03:00:23.034Z,0
2017-01-15T03:01:33.391Z,0
2017-01-15T03:33:27.261Z,0
2017-01-15T03:34:37.204Z,0
2017-01-15T03:35:47.952Z,0
2017-01-15T03:36:58.687Z,0
2017-01-15T03:38:09.038Z,0
2017-01-15T03:39:19.780Z,0
2017-01-15T03:40:30.532Z,0
2017-01-15T03:41:40.868Z,0
2017-01-15T03:42:51.869Z,0
2017-01-15T03:44:01.837Z,0
2017-01-15T03:45:12.577Z,0
2017-01-15T03:46:22.941Z,0
2017-01-15T03:47:33.297Z,0
2017-01-15T03:48:43.644Z,0
2017-01-15T03:49:53.985Z,0
2017-01-15T03:51:03.941Z,0
2017-01-15T03:52:14.683Z,0
2017-01-15T03:53:25.415Z,0
2017-01-15T03:54:36.152Z,0
2017-01-15T03:55:46.498Z,0
2017-01-15T03:56:57.240Z,0
2017-01-15T03:58:07.585Z,0
2017-01-15T03:59:18.322Z,0
2017-01-15T04:00:28.666Z,0
2017-01-15T04:01:38.621Z,0
2017-01-15T04:02:48.982Z,0
2017-01-15T04:03:59.722Z,0
2017-01-15T04:05:10.077Z,0
2017-01-15T04:06:20.818Z,0
2017-01-15T04:07:30.369Z,0
2017-01-15T04:08:41.108Z,0
2017-01-15T04:09:51.843Z,0
2017-01-15T04:11:02.580Z,0
2017-01-15T04:12:13.334Z,0
2017-01-15T04:13:24.079Z,0
2017-01-15T04:14:34.820Z,0
2017-01-15T04:15:44.397Z,0
2017-01-15T04:16:55.130Z,0
2017-01-15T04:18:05.884Z,0
2017-01-15T04:19:16.627Z,0
2017-01-15T04:20:26.583Z,0
2017-01-15T04:21:36.526Z,0
2017-01-15T04:22:47.304Z,0
2017-01-15T04:23:57.660Z,0
2017-01-15T04:25:08.016Z,0
2017-01-15T04:26:18.747Z,0
2017-01-15T04:27:29.504Z,0
2017-01-15T04:28:39.861Z,0
2017-01-15T04:29:49.808Z,0
2017-01-15T04:31:00.559Z,0
2017-01-15T04:32:10.903Z,0
2017-01-15T04:33:21.638Z,0
2017-01-15T04:34:31.599Z,0
2017-01-15T04:35:41.955Z,0
2017-01-15T04:36:52.694Z,0
2017-01-15T04:38:03.051Z,0
2017-01-15T04:39:13.007Z,0
2017-01-15T04:40:23.763Z,0
2017-01-15T04:41:34.515Z,0
2017-01-15T04:42:45.253Z,0
2017-01-15T04:43:55.213Z,0
2017-01-15T04:45:05.569Z,0
2017-01-15T04:46:15.936Z,0
2017-01-15T04:47:26.297Z,0
2017-01-15T04:48:36.646Z,0
2017-01-15T04:49:47.023Z,0
2017-01-15T04:50:57.385Z,0
2017-01-15T04:52:07.739Z,0
2017-01-15T04:53:17.677Z,0
2017-01-15T04:54:28.025Z,0
2017-01-15T04:55:38.762Z,0
2017-01-15T04:56:49.494Z,0
2017-01-15T04:57:59.848Z,0
2017-01-15T04:59:10.575Z,0
2017-01-15T05:00:20.516Z,0
2017-01-15T05:01:30.850Z,0
2017-01-15T05:02:41.592Z,0
2017-01-15T05:03:52.342Z,0
2017-01-15T05:05:03.097Z,0
2017-01-15T05:06:13.839Z,0
2017-01-15T05:07:23.789Z,0
2017-01-15T05:08:33.335Z,0
2017-01-15T05:09:44.071Z,0
2017-01-15T05:10:54.026Z,0
2017-01-15T05:12:04.388Z,0
2017-01-15T05:13:14.755Z,0
2017-01-15T05:14:24.719Z,0
2017-01-15T05:15:34.664Z,0
2017-01-15T05:16:45.402Z,0
2017-01-15T05:17:56.143Z,0
2017-01-15T05:19:06.493Z,0
2017-01-15T05:20:16.872Z,0
2017-01-15T05:21:27.608Z,0
2017-01-15T05:22:38.354Z,0
2017-01-15T05:23:48.315Z,0
2017-01-15T05:24:57.861Z,0
2017-01-15T05:26:08.233Z,0
2017-01-15T05:27:18.974Z,0
2017-01-15T05:28:29.342Z,0
2017-01-15T05:29:40.081Z,0
2017-01-15T05:30:50.029Z,0
2017-01-15T05:32:00.386Z,0
2017-01-15T05:33:10.343Z,0
2017-01-15T05:34:21.115Z,0
2017-01-15T05:35:31.471Z,0
2017-01-15T05:36:41.818Z,0
2017-01-15T05:37:52.564Z,0
2017-01-15T05:39:03.312Z,0
2017-01-15T05:40:14.058Z,0
2017-01-15T05:41:24.795Z,0
2017-01-15T05:42:35.536Z,0
2017-01-15T05:43:45.880Z,0
2017-01-15T05:44:55.825Z,0
2017-01-15T05:46:06.172Z,0
2017-01-15T05:47:16.551Z,0
2017-01-15T05:48:27.295Z,0
2017-01-15T05:49:38.025Z,0
2017-01-15T05:50:47.573Z,0
2017-01-15T05:51:58.303Z,0
2017-01-15T05:53:07.867Z,0
2017-01-15T05:54:18.649Z,0
2017-01-15T05:55:28.990Z,0
2017-01-15T05:56:39.342Z,0
2017-01-15T05:57:50.072Z,0
2017-01-15T05:59:00.410Z,0
2017-01-15T06:00:11.161Z,0
2017-01-15T06:01:21.519Z,0
2017-01-15T06:02:31.866Z,0
2017-01-15T06:03:42.222Z,0
2017-01-15T06:04:52.948Z,0
2017-01-15T06:06:02.900Z,0
2017-01-15T06:07:13.256Z,0
2017-01-15T06:08:23.992Z,0
2017-01-15T06:09:34.730Z,0
2017-01-15T06:10:45.068Z,0
2017-01-15T06:11:55.799Z,0
2017-01-15T06:13:06.153Z,0
2017-01-15T06:14:16.510Z,0
2017-01-15T06:15:27.260Z,0
2017-01-15T06:16:37.620Z,0
2017-01-15T06:17:47.568Z,0
2017-01-15T06:18:58.307Z,0
2017-01-15T06:20:09.047Z,0
2017-01-15T06:21:19.791Z,0
2017-01-15T06:22:30.129Z,0
2017-01-15T06:23:40.466Z,0
2017-01-15T06:24:51.206Z,0
2017-01-15T06:26:01.969Z,0
2017-01-15T06:27:12.335Z,0
2017-01-15T06:28:23.092Z,0
2017-01-15T06:29:33.836Z,0
2017-01-15T06:30:44.598Z,0
2017-01-15T06:31:55.332Z,0
2017-01-15T06:33:05.686Z,0
2017-01-15T06:34:16.431Z,0
2017-01-15T06:35:26.774Z,0
2017-01-15T06:36:37.519Z,0
2017-01-15T06:37:48.260Z,5
2017-01-15T06:38:58.618Z,5
2017-01-15T06:40:09.370Z,5
2017-01-15T06:41:19.316Z,5
2017-01-15T06:42:29.661Z,5
2017-01-15T06:43:40.010Z,5
2017-01-15T06:44:50.757Z,5
2017-01-15T06:46:00.748Z,10
2017-01-15T06:47:11.495Z,10
2017-01-15T06:48:22.226Z,10
2017-01-15T06:49:32.562Z,10
2017-01-15T06:50:42.906Z,10
2017-01-15T06:51:53.248Z,10
2017-01-15T06:53:04.009Z,15
2017-01-15T06:54:14.360Z,15
2017-01-15T06:55:24.331Z,15
2017-01-15T06:56:35.066Z,15
2017-01-15T06:57:45.821Z,15
2017-01-15T06:58:56.183Z,20
2017-01-15T07:00:06.534Z,20
2017-01-15T07:01:16.885Z,20
2017-01-15T07:02:27.610Z,25
2017-01-15T07:03:38.353Z,25
2017-01-15T07:04:48.710Z,25
2017-01-15T07:05:59.290Z,25
2017-01-15T07:07:10.023Z,25
2017-01-15T07:08:20.762Z,30
2017-01-15T07:09:31.542Z,30
2017-01-15T07:10:41.494Z,35
2017-01-15T07:11:51.841Z,40
2017-01-15T07:13:02.583Z,40
2017-01-15T07:14:12.941Z,40
2017-01-15T07:15:23.706Z,40
2017-01-15T07:16:34.436Z,40
2017-01-15T07:17:44.825Z,45
2017-01-15T07:18:55.572Z,45
2017-01-15T07:20:06.314Z,50
2017-01-15T07:21:16.660Z,50
2017-01-15T07:22:26.603Z,50
2017-01-15T07:23:37.345Z,45
2017-01-15T07:24:47.687Z,40
2017-01-15T07:25:58.438Z,40
2017-01-15T07:27:09.194Z,40
2017-01-15T07:28:19.544Z,40
2017-01-15T07:29:30.289Z,40
2017-01-15T07:30:40.634Z,45
2017-01-15T07:31:51.399Z,45
2017-01-15T07:33:01.354Z,45
2017-01-15T07:34:12.109Z,45
2017-01-15T07:35:22.848Z,45
2017-01-15T07:36:33.605Z,45
2017-01-15T07:37:44.341Z,50
2017-01-15T07:38:54.693Z,50
2017-01-15T07:40:05.037Z,45
2017-01-15T07:41:15.390Z,45
2017-01-15T07:42:25.737Z,45
2017-01-15T07:43:36.494Z,45
2017-01-15T07:44:47.234Z,45
2017-01-15T07:45:57.198Z,45
2017-01-15T07:47:07.954Z,50
2017-01-15T07:48:17.930Z,50
2017-01-15T07:49:27.501Z,50
2017-01-15T07:50:37.846Z,50
2017-01-15T07:51:48.205Z,50
2017-01-15T07:52:58.161Z,50
2017-01-15T07:54:08.117Z,55
2017-01-15T07:55:18.469Z,55
2017-01-15T07:56:29.212Z,60
2017-01-15T07:57:39.572Z,60
2017-01-15T07:58:49.940Z,60
2017-01-15T08:00:00.298Z,65
2017-01-15T08:01:09.857Z,65
2017-01-15T08:02:20.599Z,65
2017-01-15T08:03:30.961Z,65
2017-01-15T08:04:40.935Z,65
2017-01-15T08:05:51.308Z,65
2017-01-15T08:07:02.078Z,70
2017-01-15T08:08:12.835Z,65
2017-01-15T08:09:23.581Z,70
2017-01-15T08:10:33.928Z,70
2017-01-15T08:11:44.277Z,70
2017-01-15T08:12:55.015Z,75
2017-01-15T08:14:05.797Z,80
2017-01-15T08:15:16.162Z,85
2017-01-15T08:16:26.915Z,85
2017-01-15T08:17:37.671Z,120
2017-01-15T08:18:48.428Z,120
2017-01-15T08:19:58.776Z,120
2017-01-15T08:21:08.726Z,125
2017-01-15T08:22:19.476Z,125
2017-01-15T08:23:30.243Z,125
2017-01-15T08:24:40.602Z,130
2017-01-15T08:25:50.946Z,135
2017-01-15T08:27:01.303Z,135
2017-01-15T08:28:11.671Z,140
2017-01-15T08:29:22.022Z,140
2017-01-15T08:30:32.380Z,135
2017-01-15T08:31:42.735Z,130
2017-01-15T08:32:53.127Z,125
2017-01-15T08:34:03.084Z,110
2017-01-15T08:35:13.835Z,105
2017-01-15T08:36:24.588Z,110
2017-01-15T08:37:35.385Z,130
2017-01-15T08:38:46.175Z,155
2017-01-15T08:39:56.939Z,155
2017-01-15T08:41:07.285Z,155
2017-01-15T08:42:18.028Z,155
2017-01-15T08:43:28.413Z,120
2017-01-15T08:44:38.758Z,155
2017-01-15T08:45:49.163Z,160
2017-01-15T08:46:59.106Z,135
2017-01-15T08:48:09.856Z,110
2017-01-15T08:49:20.625Z,125
2017-01-15T08:50:30.977Z,105
2017-01-15T08:51:41.724Z,110
2017-01-15T08:52:51.715Z,105
2017-01-15T08:54:02.072Z,105
2017-01-15T08:55:12.860Z,105
2017-01-15T08:56:23.610Z,95
2017-01-15T08:57:33.953Z,95
2017-01-15T08:58:44.719Z,100
2017-01-15T08:59:55.476Z,100
2017-01-15T09:01:06.233Z,110
2017-01-15T09:02:16.996Z,115
2017-01-15T09:03:26.568Z,115
2017-01-15T09:04:37.319Z,140
2017-01-15T09:05:47.685Z,120
2017-01-15T09:06:58.052Z,115
2017-01-15T09:08:08.803Z,120
2017-01-15T09:09:19.544Z,120
2017-01-15T09:10:30.343Z,125
2017-01-15T09:11:41.113Z,125
2017-01-15T09:12:51.865Z,130
2017-01-15T09:14:01.421Z,130
2017-01-15T09:15:11.774Z,130
2017-01-15T09:16:22.517Z,150
2017-01-15T09:17:32.478Z,150
2017-01-15T09:18:42.843Z,165
2017-01-15T09:19:53.590Z,165
2017-01-15T09:21:03.152Z,240
2017-01-15T09:22:13.926Z,180
2017-01-15T09:23:24.706Z,155
2017-01-15T09:24:35.472Z,155
2017-01-15T09:25:45.858Z,170
2017-01-15T09:26:56.605Z,170
2017-01-15T09:28:07.383Z,165
2017-01-15T09:29:18.139Z,230
2017-01-15T09:30:28.482Z,230
2017-01-15T09:31:39.242Z,170
2017-01-15T09:32:49.590Z,150
2017-01-15T09:33:59.566Z,190
2017-01-15T09:35:09.548Z,160
2017-01-15T09:36:19.115Z,160
2017-01-15T09:37:29.869Z,150
2017-01-15T09:38:40.865Z,200
2017-01-15T09:39:51.615Z,195
2017-01-15T09:41:01.964Z,205
2017-01-15T09:42:12.743Z,215
2017-01-15T09:43:22.330Z,245
2017-01-15T09:44:33.068Z,160
2017-01-15T09:45:43.422Z,155
2017-01-15T09:46:54.235Z,150
2017-01-15T09:48:04.592Z,150
2017-01-15T09:49:15.350Z,150
2017-01-15T09:50:25.310Z,155
2017-01-15T09:51:36.112Z,155
2017-01-15T09:52:46.869Z,155
2017-01-15T09:53:57.616Z,155
2017-01-15T09:55:08.405Z,160
2017-01-15T09:56:18.800Z,175
2017-01-15T09:57:29.138Z,165
2017-01-15T09:58:39.893Z,155
2017-01-15T09:59:50.641Z,135
2017-01-15T10:01:01.393Z,135
2017-01-15T10:02:11.345Z,135
2017-01-15T10:03:22.102Z,135
2017-01-15T10:04:32.081Z,140
2017-01-15T10:05:42.050Z,135
2017-01-15T10:06:52.793Z,140
2017-01-15T10:08:03.179Z,140
2017-01-15T10:09:13.559Z,140
2017-01-15T10:10:23.542Z,140
2017-01-15T10:11:33.887Z,140
2017-01-15T10:12:44.250Z,135
2017-01-15T10:13:54.847Z,130
2017-01-15T10:15:05.599Z,125
2017-01-15T10:16:16.351Z,125
2017-01-15T10:17:27.111Z,120
2017-01-15T10:18:37.872Z,120
2017-01-15T10:19:48.633Z,125
2017-01-15T10:20:59.419Z,125
2017-01-15T10:22:10.174Z,125
2017-01-15T10:23:20.912Z,125
2017-01-15T10:24:31.288Z,125
2017-01-15T10:25:41.659Z,125
2017-01-15T10:26:52.023Z,125
2017-01-15T10:28:02.771Z,125
2017-01-15T10:29:13.548Z,125
2017-01-15T10:30:24.307Z,125
2017-01-15T10:31:34.661Z,130
2017-01-15T10:32:45.434Z,130
2017-01-15T10:33:55.812Z,135
2017-01-15T10:35:06.578Z,140
2017-01-15T10:36:16.136Z,145
2017-01-15T10:37:26.518Z,145
2017-01-15T10:38:36.875Z,150
2017-01-15T10:39:47.218Z,150
2017-01-15T10:40:57.185Z,155
2017-01-15T10:42:07.153Z,155
2017-01-15T10:43:17.931Z,155
2017-01-15T10:44:27.898Z,160
2017-01-15T10:45:37.891Z,160
2017-01-15T10:46:48.635Z,160
2017-01-15T10:47:59.391Z,155
2017-01-15T10:49:09.759Z,150
2017-01-15T10:50:20.512Z,145
2017-01-15T10:51:30.869Z,145
2017-01-15T10:52:41.244Z,140
2017-01-15T10:53:51.597Z,135
2017-01-15T10:55:02.352Z,135
2017-01-15T10:56:12.316Z,145
2017-01-15T10:57:22.293Z,150
2017-01-15T10:58:32.649Z,150
2017-01-15T10:59:43.410Z,140
2017-01-15T11:00:54.178Z,140
2017-01-15T11:02:04.569Z,145
2017-01-15T11:03:15.332Z,155
2017-01-15T11:04:26.117Z,135
2017-01-15T11:05:36.486Z,130
2017-01-15T11:06:46.845Z,130
2017-01-15T11:07:57.616Z,125
2017-01-15T11:09:08.390Z,125
2017-01-15T11:10:18.799Z,130
2017-01-15T11:11:28.761Z,135
2017-01-15T11:12:39.139Z,180
2017-01-15T11:13:49.898Z,175
2017-01-15T11:15:00.270Z,130
2017-01-15T11:16:09.441Z,110
2017-01-15T11:17:20.198Z,125
2017-01-15T11:18:30.574Z,125
2017-01-15T11:19:40.545Z,130
2017-01-15T11:20:50.956Z,110
2017-01-15T11:22:01.346Z,115
2017-01-15T11:23:10.907Z,215
2017-01-15T11:24:21.662Z,225
2017-01-15T11:25:32.428Z,215
2017-01-15T11:26:43.231Z,220
2017-01-15T11:27:53.983Z,145
2017-01-15T11:29:04.358Z,140
2017-01-15T11:30:14.737Z,230
2017-01-15T11:31:25.100Z,250
2017-01-15T11:32:35.071Z,155
2017-01-15T11:33:45.836Z,140
2017-01-15T11:34:56.214Z,140
2017-01-15T11:36:06.970Z,130
2017-01-15T11:37:17.317Z,125
2017-01-15T11:38:28.076Z,130
2017-01-15T11:39:38.462Z,130
2017-01-15T11:40:48.821Z,140
2017-01-15T11:41:59.193Z,135
2017-01-15T11:43:09.547Z,140
2017-01-15T11:44:19.926Z,140
2017-01-15T11:45:30.283Z,145
2017-01-15T11:46:41.050Z,140
2017-01-15T11:47:51.837Z,140
2017-01-15T11:49:02.191Z,135
2017-01-15T11:50:12.555Z,130
2017-01-15T11:51:23.327Z,130
2017-01-15T11:52:34.102Z,125
2017-01-15T11:53:44.477Z,130
2017-01-15T11:54:54.841Z,120
2017-01-15T11:56:05.215Z,120
2017-01-15T11:57:15.586Z,160
2017-01-15T11:58:26.340Z,160
2017-01-15T11:59:36.314Z,230
2017-01-15T12:00:47.076Z,230
2017-01-15T12:01:57.846Z,230
2017-01-15T12:03:08.627Z,160
2017-01-15T12:04:19.401Z,180
2017-01-15T12:05:30.167Z,120
2017-01-15T12:06:40.546Z,120
2017-01-15T12:07:50.935Z,120
2017-01-15T12:09:01.294Z,120
2017-01-15T12:10:12.050Z,170
2017-01-15T12:11:22.802Z,120
2017-01-15T12:12:33.573Z,115
2017-01-15T12:13:44.320Z,110
2017-01-15T12:14:55.085Z,110
2017-01-15T12:16:05.894Z,110
2017-01-15T12:17:16.248Z,105
2017-01-15T12:18:26.598Z,105
2017-01-15T12:19:37.340Z,105
2017-01-15T12:20:48.088Z,120
2017-01-15T12:21:58.448Z,110
2017-01-15T12:23:09.220Z,110
2017-01-15T12:24:20.013Z,110
2017-01-15T12:25:30.780Z,110
2017-01-15T12:26:41.538Z,110
2017-01-15T12:27:51.505Z,110
2017-01-15T12:29:01.877Z,110
2017-01-15T12:30:12.483Z,110
2017-01-15T12:31:22.879Z,110
2017-01-15T12:32:33.243Z,110
2017-01-15T12:33:43.218Z,110
2017-01-15T12:34:53.580Z,110
2017-01-15T12:36:03.983Z,110
2017-01-15T12:37:14.761Z,110
2017-01-15T12:38:25.540Z,110
2017-01-15T12:39:36.375Z,230
2017-01-15T12:40:46.752Z,115
2017-01-15T12:41:57.208Z,110
2017-01-15T12:43:07.568Z,105
2017-01-15T12:44:18.342Z,105
2017-01-15T12:45:29.108Z,105
2017-01-15T12:46:39.468Z,100
2017-01-15T12:47:50.239Z,95
2017-01-15T12:49:00.647Z,100
2017-01-15T12:50:11.036Z,100
2017-01-15T12:51:21.394Z,100
2017-01-15T12:52:32.161Z,100
2017-01-15T12:53:42.524Z,95
2017-01-15T12:54:53.306Z,95
2017-01-15T12:56:03.282Z,95
2017-01-15T12:57:13.230Z,100
2017-01-15T12:58:24.000Z,100
2017-01-15T12:59:34.348Z,100
2017-01-15T13:00:45.103Z,105
2017-01-15T13:01:55.462Z,165
2017-01-15T13:03:06.214Z,130
2017-01-15T13:04:16.581Z,150
2017-01-15T13:05:27.371Z,215
2017-01-15T13:06:37.736Z,215
2017-01-15T13:07:47.699Z,185
2017-01-15T13:08:58.067Z,200
2017-01-15T13:10:08.421Z,155
2017-01-15T13:11:19.165Z,145
2017-01-15T13:12:29.530Z,195
2017-01-15T13:13:39.524Z,120
2017-01-15T13:14:49.498Z,130
2017-01-15T13:15:59.481Z,170
2017-01-15T13:17:09.850Z,185
2017-01-15T13:18:20.610Z,175
2017-01-15T13:19:30.971Z,165
2017-01-15T13:20:40.972Z,160
2017-01-15T13:21:51.740Z,165
2017-01-15T13:23:01.712Z,160
2017-01-15T13:24:12.489Z,160
2017-01-15T13:25:23.252Z,160
2017-01-15T13:26:33.626Z,155
2017-01-15T13:27:44.034Z,155
2017-01-15T13:28:54.423Z,150
2017-01-15T13:30:04.803Z,150
2017-01-15T13:31:15.172Z,140
2017-01-15T13:32:25.975Z,100
2017-01-15T13:33:36.349Z,85
2017-01-15T13:34:47.113Z,140
2017-01-15T13:35:57.466Z,85
2017-01-15T13:37:08.220Z,80
2017-01-15T13:38:18.613Z,80
2017-01-15T13:39:28.578Z,75
2017-01-15T13:40:39.353Z,80
2017-01-15T13:41:50.134Z,75
2017-01-15T13:43:00.909Z,75
2017-01-15T13:44:11.281Z,70
2017-01-15T13:45:22.045Z,65
2017-01-15T13:46:32.458Z,65
2017-01-15T13:47:43.212Z,95
2017-01-15T13:48:53.585Z,105
2017-01-15T13:50:03.979Z,120
2017-01-15T13:51:13.966Z,115
2017-01-15T13:52:24.720Z,120
2017-01-15T13:53:35.096Z,115
2017-01-15T13:54:45.467Z,115
2017-01-15T13:55:55.853Z,115
2017-01-15T13:57:06.632Z,120
2017-01-15T13:58:17.008Z,115
2017-01-15T13:59:27.768Z,115
2017-01-15T14:00:37.735Z,115
2017-01-15T14:01:48.501Z,115
2017-01-15T14:02:59.270Z,115
2017-01-15T14:04:09.653Z,115
2017-01-15T14:05:20.434Z,110
2017-01-15T14:06:31.045Z,110
2017-01-15T14:07:41.417Z,110
2017-01-15T14:08:51.790Z,105
2017-01-15T14:10:02.548Z,105
2017-01-15T14:11:13.320Z,100
2017-01-15T14:12:24.083Z,100
2017-01-15T14:13:34.483Z,95
2017-01-15T14:14:45.265Z,95
2017-01-15T14:15:56.040Z,90
2017-01-15T14:17:06.417Z,90
2017-01-15T14:18:17.166Z,90
2017-01-15T14:19:27.965Z,85
2017-01-15T14:20:38.747Z,55
2017-01-15T14:21:49.110Z,50
2017-01-15T14:22:59.080Z,75
2017-01-15T14:24:09.479Z,55
2017-01-15T14:25:20.255Z,60
2017-01-15T14:26:30.596Z,70
2017-01-15T14:27:40.951Z,70
2017-01-15T14:28:51.713Z,70
2017-01-15T14:30:02.096Z,70
2017-01-15T14:31:12.874Z,65
2017-01-15T14:32:23.644Z,65
2017-01-15T14:33:34.042Z,60
2017-01-15T14:34:44.786Z,45
2017-01-15T14:35:55.162Z,50
2017-01-15T14:37:05.584Z,50
2017-01-15T14:38:16.358Z,55
2017-01-15T14:39:27.139Z,45
2017-01-15T14:40:37.506Z,50
2017-01-15T14:41:47.872Z,45
2017-01-15T14:42:58.653Z,45
2017-01-15T14:44:09.429Z,40
2017-01-15T14:45:19.825Z,35
2017-01-15T14:46:29.794Z,35
2017-01-15T14:47:40.154Z,35
2017-01-15T14:48:50.532Z,35
2017-01-15T14:50:01.328Z,30
2017-01-15T14:51:12.084Z,30
2017-01-15T14:52:22.833Z,30
2017-01-15T14:53:33.580Z,30
2017-01-15T14:54:43.942Z,25
2017-01-15T14:55:54.695Z,25
2017-01-15T14:57:05.446Z,25
2017-01-15T14:58:16.211Z,25
2017-01-15T14:59:26.568Z,25
2017-01-15T15:00:36.922Z,25
2017-01-15T15:01:47.296Z,20
2017-01-15T15:02:57.671Z,20
2017-01-15T15:04:08.433Z,20
2017-01-15T15:05:19.191Z,20
2017-01-15T15:06:29.555Z,20
2017-01-15T15:07:40.292Z,20
2017-01-15T15:08:50.247Z,15
2017-01-15T15:10:00.233Z,15
2017-01-15T15:11:10.206Z,15
2017-01-15T15:12:20.970Z,15
2017-01-15T15:13:31.354Z,15
2017-01-15T15:14:41.706Z,10
2017-01-15T15:15:52.062Z,10
2017-01-15T15:17:02.444Z,10
2017-01-15T15:18:13.206Z,10
2017-01-15T15:19:23.997Z,10
2017-01-15T15:20:33.553Z,5
2017-01-15T15:21:44.297Z,5
2017-01-15T15:22:54.654Z,5
2017-01-15T15:24:04.616Z,5
2017-01-15T15:25:14.981Z,5
2017-01-15T15:26:25.739Z,5
2017-01-15T15:27:36.131Z,5
2017-01-15T15:28:46.878Z,5
2017-01-15T15:29:57.237Z,0
2017-01-15T15:31:08.011Z,0
2017-01-15T15:32:18.750Z,0
2017-01-15T15:33:29.149Z,0
2017-01-15T15:34:39.155Z,0
2017-01-15T15:35:49.913Z,0
2017-01-15T15:37:00.680Z,0
2017-01-15T15:38:11.427Z,0
2017-01-15T15:39:21.390Z,0
2017-01-15T15:40:32.150Z,0
2017-01-15T15:41:42.134Z,0
2017-01-15T15:42:52.893Z,0
2017-01-15T15:44:03.649Z,0
2017-01-15T15:45:14.408Z,0
2017-01-15T15:46:25.163Z,0
2017-01-15T15:47:35.942Z,0
2017-01-15T15:48:46.294Z,0
2017-01-15T15:49:56.256Z,0
2017-01-15T15:51:06.617Z,0
2017-01-15T15:52:17.360Z,0
2017-01-15T15:53:27.324Z,0
2017-01-15T15:54:38.087Z,0
2017-01-15T15:55:48.443Z,0
2017-01-15T15:56:59.214Z,0
2017-01-15T15:58:09.589Z,0
2017-01-15T15:59:20.024Z,0
2017-01-15T16:00:30.412Z,0
2017-01-15T16:01:41.211Z,0
2017-01-15T16:02:51.580Z,0
2017-01-15T16:04:01.556Z,0
2017-01-15T16:05:12.332Z,0
2017-01-15T16:06:23.093Z,0
2017-01-15T16:07:33.862Z,0
2017-01-15T16:08:44.633Z,0
2017-01-15T16:09:55.396Z,0
2017-01-15T16:11:05.373Z,0
2017-01-15T16:12:16.152Z,0
2017-01-15T16:13:26.910Z,0
2017-01-15T16:14:37.670Z,0
2017-01-15T16:15:48.032Z,0
2017-01-15T16:16:58.801Z,0
2017-01-15T16:18:08.390Z,0
2017-01-15T16:19:18.774Z,0
2017-01-15T16:20:29.177Z,0
2017-01-15T16:21:39.978Z,0
2017-01-15T16:22:50.389Z,0
2017-01-15T16:24:00.791Z,0
2017-01-15T16:25:11.617Z,0
2017-01-15T16:26:22.690Z,0
2017-01-15T16:27:32.702Z,0
2017-01-15T16:28:43.802Z,0
2017-01-15T16:29:53.812Z,0
2017-01-15T16:31:04.227Z,0
2017-01-15T16:32:14.639Z,0
2017-01-15T16:33:25.410Z,0
2017-01-15T16:34:36.182Z,0
2017-01-15T16:35:46.572Z,0
2017-01-15T16:36:56.571Z,0
2017-01-15T16:38:07.377Z,0
2017-01-15T16:39:18.407Z,0
2017-01-15T16:40:28.865Z,0
2017-01-15T16:41:39.656Z,0
2017-01-15T16:42:50.430Z,0
2017-01-15T16:44:01.239Z,0
2017-01-15T16:45:11.605Z,0
2017-01-15T16:46:22.367Z,0
2017-01-15T16:47:33.136Z,0
2017-01-15T16:48:43.492Z,0
2017-01-15T16:49:53.858Z,0
2017-01-15T16:51:04.230Z,0
2017-01-15T16:52:14.976Z,0
2017-01-15T16:53:25.740Z,0
2017-01-15T16:54:36.499Z,0
2017-01-15T16:55:46.870Z,0
2017-01-15T16:56:57.242Z,0
2017-01-15T16:58:08.014Z,0
2017-01-15T16:59:18.769Z,0
2017-01-15T17:00:29.148Z,0
2017-01-15T17:01:39.891Z,0
2017-01-15T17:02:49.867Z,0
2017-01-15T17:04:00.668Z,0
2017-01-15T17:05:11.443Z,0
2017-01-15T17:06:21.811Z,0
2017-01-15T17:07:32.235Z,0
2017-01-15T17:08:42.994Z,0
2017-01-15T17:09:53.744Z,0
2017-01-15T17:11:04.514Z,0
2017-01-15T17:12:14.873Z,0
2017-01-15T17:13:25.639Z,0
2017-01-15T17:14:36.432Z,0
2017-01-15T17:15:46.841Z,0
2017-01-15T17:16:56.835Z,0
2017-01-15T17:18:07.601Z,0
2017-01-15T17:19:17.971Z,0
2017-01-15T17:20:28.769Z,0
2017-01-15T17:21:39.543Z,0